createdAt,value
2023-01-08T00:01:58.582Z,101110.78
2023-01-08T00:05:03.932Z,101109.38
2023-01-08T00:08:08.552Z,101113.06
2023-01-08T00:11:12.004Z,101118.75
2023-01-08T00:14:14.716Z,101116.34
2023-01-08T00:17:18.728Z,101116.25
2023-01-08T00:20:21.344Z,101109.59
2023-01-08T00:23:24.192Z,101105.31
2023-01-08T00:26:26.793Z,101107.31
2023-01-08T00:29:29.562Z,101101.66
2023-01-08T00:32:34.647Z,101114.72
2023-01-08T00:35:38.101Z,101112.97
2023-01-08T00:38:41.099Z,101110.50
2023-01-08T00:41:45.492Z,101120.81
2023-01-08T00:44:48.231Z,101124.75
2023-01-08T00:47:52.674Z,101125.69
2023-01-08T00:50:55.523Z,101130.31
2023-01-08T00:53:58.136Z,101132.63
2023-01-08T00:57:00.795Z,101124.06
2023-01-08T01:00:05.135Z,101119.16
2023-01-08T01:03:09.426Z,101138.78
2023-01-08T01:06:14.170Z,101143.53
2023-01-08T01:09:16.986Z,101134.19
2023-01-08T01:12:19.694Z,101136.91
2023-01-08T01:15:22.407Z,101134.47
2023-01-08T01:18:27.238Z,101134.03
2023-01-08T01:21:31.601Z,101129.59
2023-01-08T01:24:34.486Z,101135.13
2023-01-08T01:27:37.139Z,101126.00
2023-01-08T01:30:39.974Z,101120.84
2023-01-08T01:33:44.569Z,101114.06
2023-01-08T01:36:47.263Z,101108.25
2023-01-08T01:39:50.002Z,101118.22
2023-01-08T01:42:52.638Z,101121.19
2023-01-08T01:45:58.627Z,101115.97
2023-01-08T01:49:07.056Z,101107.97
2023-01-08T01:52:11.741Z,101111.69
2023-01-08T01:55:15.902Z,101116.22
2023-01-08T01:58:23.031Z,101107.97
2023-01-08T02:01:27.083Z,101102.63
2023-01-08T02:04:31.284Z,101094.00
2023-01-08T02:07:41.495Z,101084.78
2023-01-08T02:10:50.554Z,101080.03
2023-01-08T02:14:00.294Z,101080.03
2023-01-08T02:17:08.855Z,101070.41
2023-01-08T02:20:17.155Z,101083.50
2023-01-08T02:23:27.074Z,101068.59
2023-01-08T02:26:31.893Z,101070.50
2023-01-08T02:29:35.598Z,101083.44
2023-01-08T02:32:40.607Z,101084.03
2023-01-08T02:35:48.813Z,101094.81
2023-01-08T02:39:03.882Z,101098.28
2023-01-08T02:42:12.552Z,101098.78
2023-01-08T02:45:28.923Z,101083.34
2023-01-08T02:48:40.014Z,101077.88
2023-01-08T02:51:48.327Z,101079.69
2023-01-08T02:54:51.827Z,101084.69
2023-01-08T02:57:56.516Z,101082.25
2023-01-08T03:01:02.268Z,101067.81
2023-01-08T03:04:09.935Z,101068.38
2023-01-08T03:07:12.875Z,101065.56
2023-01-08T03:10:16.090Z,101062.81
2023-01-08T03:13:26.488Z,101062.66
2023-01-08T03:16:34.006Z,101076.63
2023-01-08T03:19:41.247Z,101071.69
2023-01-08T03:22:47.842Z,101069.03
2023-01-08T03:25:50.618Z,101066.69
2023-01-08T03:28:57.531Z,101080.19
2023-01-08T03:32:05.303Z,101075.28
2023-01-08T03:35:10.775Z,101078.66
2023-01-08T03:38:18.754Z,101060.69
2023-01-08T03:41:24.889Z,101059.84
2023-01-08T03:44:29.206Z,101061.31
2023-01-08T03:47:33.285Z,101047.72
2023-01-08T03:50:36.851Z,101045.41
2023-01-08T03:53:39.640Z,101045.81
2023-01-08T03:56:42.562Z,101040.50
2023-01-08T03:59:47.360Z,101039.31
2023-01-08T04:02:50.024Z,101044.09
2023-01-08T04:05:52.713Z,101044.22
2023-01-08T04:08:55.584Z,101046.03
2023-01-08T04:11:58.347Z,101045.25
2023-01-08T04:15:02.471Z,101043.06
2023-01-08T04:18:05.954Z,101047.84
2023-01-08T04:21:08.628Z,101046.94
2023-01-08T04:24:11.880Z,101050.47
2023-01-08T04:27:14.653Z,101043.78
2023-01-08T04:30:18.833Z,101055.25
2023-01-08T04:33:21.568Z,101055.97
2023-01-08T04:36:24.171Z,101055.47
2023-01-08T04:39:26.923Z,101048.72
2023-01-08T04:42:29.598Z,101050.63
2023-01-08T04:45:34.106Z,101057.13
2023-01-08T04:48:37.211Z,101063.34
2023-01-08T04:51:39.964Z,101054.69
2023-01-08T04:54:42.587Z,101060.09
2023-01-08T04:57:45.470Z,101055.78
2023-01-08T05:00:49.591Z,101057.34
2023-01-08T05:03:54.422Z,101056.81
2023-01-08T05:06:57.069Z,101049.47
2023-01-08T05:10:00.047Z,101050.47
2023-01-08T05:13:03.004Z,101054.66
2023-01-08T05:16:07.797Z,101067.53
2023-01-08T05:19:10.514Z,101054.88
2023-01-08T05:22:13.227Z,101054.41
2023-01-08T05:25:16.052Z,101052.47
2023-01-08T05:28:18.903Z,101051.53
2023-01-08T05:31:24.022Z,101049.16
2023-01-08T05:34:26.790Z,101046.38
2023-01-08T05:37:29.458Z,101042.13
2023-01-08T05:40:32.252Z,101042.16
2023-01-08T05:43:35.398Z,101038.72
2023-01-08T05:46:39.479Z,101036.63
2023-01-08T05:49:42.231Z,101031.50
2023-01-08T05:52:44.869Z,101033.97
2023-01-08T05:55:47.837Z,101031.50
2023-01-08T05:58:53.868Z,101033.59
2023-01-08T06:01:57.981Z,101019.72
2023-01-08T06:05:00.697Z,101021.88
2023-01-08T06:08:03.484Z,101025.09
2023-01-08T06:11:08.840Z,101017.19
2023-01-08T06:14:11.500Z,101015.63
2023-01-08T06:17:16.418Z,101021.81
2023-01-08T06:20:19.143Z,101027.34
2023-01-08T06:23:22.044Z,101022.47
2023-01-08T06:26:24.747Z,101019.44
2023-01-08T06:29:27.492Z,101013.13
2023-01-08T06:32:31.620Z,101029.69
2023-01-08T06:35:34.391Z,101030.63
2023-01-08T06:38:37.934Z,101033.03
2023-01-08T06:41:40.606Z,101039.03
2023-01-08T06:44:43.411Z,101033.97
2023-01-08T06:47:47.612Z,101040.16
2023-01-08T06:50:50.368Z,101035.38
2023-01-08T06:53:53.146Z,101026.44
2023-01-08T06:56:55.815Z,101035.72
2023-01-08T06:59:58.630Z,101037.31
2023-01-08T07:03:02.986Z,101037.31
2023-01-08T07:06:06.546Z,101036.53
2023-01-08T07:09:12.334Z,101032.59
2023-01-08T07:12:15.197Z,101026.91
2023-01-08T07:15:17.941Z,101041.13
2023-01-08T07:18:22.374Z,101038.13
2023-01-08T07:21:25.195Z,101033.56
2023-01-08T07:24:27.934Z,101033.56
2023-01-08T07:27:31.852Z,101041.47
2023-01-08T07:30:34.538Z,101040.22
2023-01-08T07:33:38.733Z,101038.78
2023-01-08T07:36:41.445Z,101038.94
2023-01-08T07:39:44.138Z,101044.81
2023-01-08T07:42:46.870Z,101050.81
2023-01-08T07:45:49.509Z,101043.06
2023-01-08T07:48:53.583Z,101039.56
2023-01-08T07:51:56.449Z,101046.97
2023-01-08T07:54:59.257Z,101041.44
2023-01-08T07:58:08.240Z,101032.88
2023-01-08T08:01:12.426Z,101029.06
2023-01-08T08:04:18.053Z,101019.22
2023-01-08T08:07:20.710Z,101025.72
2023-01-08T08:10:23.378Z,101031.97
2023-01-08T08:13:26.417Z,101031.50
2023-01-08T08:16:29.201Z,101019.63
2023-01-08T08:19:33.508Z,101015.59
2023-01-08T08:22:36.632Z,101014.53
2023-01-08T08:25:43.090Z,101005.28
2023-01-08T08:28:45.764Z,101000.25
2023-01-08T08:31:48.827Z,101000.03
2023-01-08T08:34:53.384Z,100992.19
2023-01-08T08:37:57.201Z,100996.13
2023-01-08T08:41:00.122Z,100998.94
2023-01-08T08:44:03.134Z,101001.13
2023-01-08T08:47:07.630Z,101001.84
2023-01-08T08:50:12.164Z,100993.31
2023-01-08T08:53:15.006Z,100992.34
2023-01-08T08:56:17.738Z,100999.91
2023-01-08T08:59:20.551Z,100992.19
2023-01-08T09:02:23.549Z,100988.31
2023-01-08T09:05:27.849Z,100993.75
2023-01-08T09:08:30.691Z,100989.78
2023-01-08T09:11:33.307Z,100994.25
2023-01-08T09:14:37.050Z,100991.09
2023-01-08T09:17:39.742Z,100984.06
2023-01-08T09:20:43.885Z,100986.28
2023-01-08T09:23:48.334Z,100980.91
2023-01-08T09:26:53.411Z,100972.06
2023-01-08T09:29:56.336Z,100962.69
2023-01-08T09:33:02.321Z,100961.25
2023-01-08T09:36:11.065Z,100964.66
2023-01-08T09:39:14.267Z,100953.50
2023-01-08T09:42:21.888Z,100945.84
2023-01-08T09:45:29.160Z,100938.66
2023-01-08T09:48:36.044Z,100932.78
2023-01-08T09:51:40.414Z,100921.19
2023-01-08T09:54:43.239Z,100921.13
2023-01-08T09:57:47.336Z,100924.41
2023-01-08T10:00:50.810Z,100916.19
2023-01-08T10:04:00.011Z,100920.72
2023-01-08T10:07:13.653Z,100915.44
2023-01-08T10:10:20.096Z,100906.69
2023-01-08T10:13:22.945Z,100912.47
2023-01-08T10:16:30.643Z,100910.56
2023-01-08T10:19:33.542Z,100906.44
2023-01-08T10:22:37.621Z,100899.34
2023-01-08T10:25:56.329Z,100905.25
2023-01-08T10:29:16.891Z,100894.88
2023-01-08T10:32:26.494Z,100892.03
2023-01-08T10:35:34.217Z,100886.56
2023-01-08T10:38:42.901Z,100874.78
2023-01-08T10:41:45.910Z,100880.00
2023-01-08T10:44:59.958Z,100870.91
2023-01-08T10:48:07.209Z,100870.44
2023-01-08T10:51:15.961Z,100865.03
2023-01-08T10:54:31.268Z,100862.66
2023-01-08T10:57:34.908Z,100850.09
2023-01-08T11:00:38.912Z,100850.06
2023-01-08T11:03:42.352Z,100836.50
2023-01-08T11:06:48.580Z,100841.19
2023-01-08T11:09:55.078Z,100826.75
2023-01-08T11:13:00.257Z,100828.59
2023-01-08T11:16:05.730Z,100819.28
2023-01-08T11:19:17.862Z,100815.31
2023-01-08T11:22:23.034Z,100804.50
2023-01-08T11:25:30.190Z,100799.41
2023-01-08T11:28:47.264Z,100797.09
2023-01-08T11:31:56.215Z,100781.03
2023-01-08T11:35:03.597Z,100790.72
2023-01-08T11:38:08.306Z,100783.91
2023-01-08T11:41:35.576Z,100791.34
2023-01-08T11:44:47.940Z,100775.97
2023-01-08T11:48:07.764Z,100780.13
2023-01-08T11:51:40.109Z,100779.63
2023-01-08T11:55:24.206Z,100778.34
2023-01-08T11:58:42.310Z,100768.34
2023-01-08T12:01:54.149Z,100768.50
2023-01-08T12:05:21.860Z,100760.13
2023-01-08T12:08:35.946Z,100752.84
2023-01-08T12:11:47.838Z,100759.88
2023-01-08T12:15:04.233Z,100749.28
2023-01-08T12:18:24.283Z,100738.94
2023-01-08T12:21:44.747Z,100744.69
2023-01-08T12:25:21.479Z,100745.66
2023-01-08T12:28:45.573Z,100740.91
2023-01-08T12:32:07.375Z,100745.06
2023-01-08T12:35:14.180Z,100761.19
2023-01-08T12:38:21.839Z,100737.56
2023-01-08T12:41:25.432Z,100730.97
2023-01-08T12:44:30.785Z,100738.16
2023-01-08T12:47:37.865Z,100725.84
2023-01-08T12:50:49.879Z,100732.66
2023-01-08T12:54:00.114Z,100733.50
2023-01-08T12:57:10.092Z,100736.50
2023-01-08T13:00:22.592Z,100722.25
2023-01-08T13:03:29.866Z,100724.22
2023-01-08T13:06:32.705Z,100729.06
2023-01-08T13:09:35.497Z,100725.41
2023-01-08T13:12:40.973Z,100716.97
2023-01-08T13:15:44.212Z,100710.84
2023-01-08T13:18:57.153Z,100716.91
2023-01-08T13:22:00.953Z,100710.19
2023-01-08T13:25:33.076Z,100716.66
2023-01-08T13:28:44.661Z,100705.34
2023-01-08T13:31:47.852Z,100705.06
2023-01-08T13:35:02.190Z,100705.56
2023-01-08T13:38:13.576Z,100706.84
2023-01-08T13:41:26.763Z,100703.50
2023-01-08T13:44:32.167Z,100699.88
2023-01-08T13:47:37.063Z,100696.53
2023-01-08T13:50:46.674Z,100696.22
2023-01-08T13:53:49.525Z,100693.00
2023-01-08T13:56:55.757Z,100692.53
2023-01-08T14:00:00.013Z,100700.28
2023-01-08T14:03:02.909Z,100699.13
2023-01-08T14:06:13.397Z,100687.84
2023-01-08T14:09:22.065Z,100680.66
2023-01-08T14:12:25.204Z,100687.28
2023-01-08T14:15:29.226Z,100687.97
2023-01-08T14:18:32.600Z,100679.50
2023-01-08T14:21:37.943Z,100679.84
2023-01-08T14:24:44.696Z,100693.16
2023-01-08T14:27:59.228Z,100680.97
2023-01-08T14:31:01.988Z,100683.69
2023-01-08T14:34:05.480Z,100681.50
2023-01-08T14:37:13.230Z,100688.44
2023-01-08T14:40:17.326Z,100684.09
2023-01-08T14:43:21.437Z,100670.53
2023-01-08T14:46:27.879Z,100669.28
2023-01-08T14:49:34.376Z,100672.28
2023-01-08T14:52:40.853Z,100660.56
2023-01-08T14:55:46.939Z,100668.19
2023-01-08T14:58:50.619Z,100666.22
2023-01-08T15:01:56.860Z,100656.06
2023-01-08T15:05:05.188Z,100657.63
2023-01-08T15:08:24.260Z,100665.47
2023-01-08T15:11:31.001Z,100659.31
2023-01-08T15:14:36.830Z,100655.41
2023-01-08T15:17:41.175Z,100658.16
2023-01-08T15:20:45.187Z,100660.56
2023-01-08T15:23:52.342Z,100655.25
2023-01-08T15:26:56.449Z,100660.94
2023-01-08T15:30:00.893Z,100656.09
2023-01-08T15:33:08.309Z,100660.91
2023-01-08T15:36:11.141Z,100657.22
2023-01-08T15:39:16.187Z,100655.66
2023-01-08T15:42:39.869Z,100663.66
2023-01-08T15:45:44.954Z,100659.72
2023-01-08T15:48:47.783Z,100666.00
2023-01-08T15:51:52.111Z,100658.53
2023-01-08T15:54:57.065Z,100664.88
2023-01-08T15:58:00.520Z,100663.09
2023-01-08T16:01:03.316Z,100658.22
2023-01-08T16:04:06.336Z,100651.19
2023-01-08T16:07:09.650Z,100657.16
2023-01-08T16:10:14.735Z,100658.59
2023-01-08T16:13:17.463Z,100653.97
2023-01-08T16:16:21.403Z,100652.47
2023-01-08T16:19:25.153Z,100660.03
2023-01-08T16:22:28.076Z,100645.28
2023-01-08T16:25:32.333Z,100634.16
2023-01-08T16:28:35.394Z,100643.84
2023-01-08T16:31:38.591Z,100638.50
2023-01-08T16:34:41.723Z,100642.41
2023-01-08T16:37:44.821Z,100631.19
2023-01-08T16:40:49.173Z,100632.34
2023-01-08T16:43:52.413Z,100635.03
2023-01-08T16:46:56.151Z,100633.00
2023-01-08T16:49:58.995Z,100627.38
2023-01-08T16:53:01.755Z,100625.88
2023-01-08T16:56:06.704Z,100629.34
2023-01-08T16:59:22.262Z,100627.38
2023-01-08T17:02:25.956Z,100635.91
2023-01-08T17:05:28.907Z,100624.75
2023-01-08T17:08:31.696Z,100630.84
2023-01-08T17:11:36.175Z,100638.00
2023-01-08T17:14:38.913Z,100631.38
2023-01-08T17:17:41.865Z,100624.88
2023-01-08T17:20:49.395Z,100629.25
2023-01-08T17:23:52.312Z,100626.91
2023-01-08T17:26:57.400Z,100632.03
2023-01-08T17:30:00.268Z,100620.09
2023-01-08T17:33:03.725Z,100623.53
2023-01-08T17:36:10.770Z,100625.78
2023-01-08T17:39:13.492Z,100623.59
2023-01-08T17:42:28.162Z,100624.31
2023-01-08T17:45:31.143Z,100616.44
2023-01-08T17:48:34.894Z,100619.63
2023-01-08T17:51:38.720Z,100616.91
2023-01-08T17:54:41.435Z,100624.69
2023-01-08T17:57:45.584Z,100625.09
2023-01-08T18:00:48.639Z,100633.25
2023-01-08T18:03:52.627Z,100615.03
2023-01-08T18:06:55.699Z,100620.50
2023-01-08T18:09:58.590Z,100613.84
2023-01-08T18:13:02.844Z,100614.66
2023-01-08T18:16:07.624Z,100619.75
2023-01-08T18:19:11.521Z,100626.66
2023-01-08T18:22:14.165Z,100615.41
2023-01-08T18:25:17.528Z,100611.47
2023-01-08T18:28:21.703Z,100620.09
2023-01-08T18:31:24.494Z,100619.31
2023-01-08T18:34:27.212Z,100612.88
2023-01-08T18:37:29.984Z,100607.69
2023-01-08T18:40:32.872Z,100611.59
2023-01-08T18:43:37.691Z,100608.16
2023-01-08T18:46:40.721Z,100613.03
2023-01-08T18:49:43.827Z,100611.22
2023-01-08T18:52:47.390Z,100611.91
2023-01-08T18:55:53.231Z,100599.53
2023-01-08T18:58:57.791Z,100610.03
2023-01-08T19:02:01.368Z,100605.75
2023-01-08T19:05:04.769Z,100609.25
2023-01-08T19:08:08.056Z,100615.41
2023-01-08T19:11:11.905Z,100620.09
2023-01-08T19:14:16.324Z,100611.91
2023-01-08T19:17:19.294Z,100612.38
2023-01-08T19:20:21.989Z,100619.00
2023-01-08T19:23:25.550Z,100615.06
2023-01-08T19:26:28.508Z,100609.97
2023-01-08T19:29:32.617Z,100601.38
2023-01-08T19:32:35.363Z,100600.44
2023-01-08T19:35:38.369Z,100608.41
2023-01-08T19:38:41.950Z,100612.38
2023-01-08T19:42:03.659Z,100605.78
2023-01-08T19:45:09.102Z,100599.59
2023-01-08T19:48:11.733Z,100617.50
2023-01-08T19:51:15.073Z,100606.94
2023-01-08T19:54:18.890Z,100595.28
2023-01-08T19:57:21.955Z,100598.91
2023-01-08T20:00:26.311Z,100601.03
2023-01-08T20:03:29.599Z,100606.13
2023-01-08T20:06:32.442Z,100600.44
2023-01-08T20:09:35.746Z,100592.56
2023-01-08T20:12:38.711Z,100589.44
2023-01-08T20:15:42.920Z,100602.56
2023-01-08T20:18:46.071Z,100595.69
2023-01-08T20:21:49.196Z,100603.34
2023-01-08T20:24:53.259Z,100592.44
2023-01-08T20:27:56.126Z,100585.50
2023-01-08T20:31:06.055Z,100585.50
2023-01-08T20:34:14.404Z,100580.44
2023-01-08T20:37:17.257Z,100582.75
2023-01-08T20:40:20.389Z,100578.03
2023-01-08T20:43:23.767Z,100587.31
2023-01-08T20:46:29.698Z,100574.97
2023-01-08T20:49:32.730Z,100570.56
2023-01-08T20:52:35.676Z,100569.88
2023-01-08T20:55:39.051Z,100556.31
2023-01-08T20:58:43.980Z,100550.88
2023-01-08T21:01:48.105Z,100557.94
2023-01-08T21:04:50.815Z,100553.47
2023-01-08T21:07:53.505Z,100555.81
2023-01-08T21:11:00.589Z,100554.72
2023-01-08T21:14:04.430Z,100558.91
2023-01-08T21:17:08.666Z,100557.03
2023-01-08T21:20:12.331Z,100559.25
2023-01-08T21:23:15.130Z,100555.75
2023-01-08T21:26:18.806Z,100560.72
2023-01-08T21:29:23.230Z,100557.16
2023-01-08T21:32:27.225Z,100547.78
2023-01-08T21:35:30.068Z,100545.59
2023-01-08T21:38:33.541Z,100538.19
2023-01-08T21:41:54.714Z,100536.69
2023-01-08T21:45:15.537Z,100534.75
2023-01-08T21:48:19.585Z,100534.69
2023-01-08T21:51:40.605Z,100531.31
2023-01-08T21:54:44.363Z,100530.00
2023-01-08T21:57:46.975Z,100513.69
2023-01-08T22:00:49.729Z,100509.41
2023-01-08T22:03:54.455Z,100518.19
2023-01-08T22:06:57.186Z,100514.38
2023-01-08T22:10:00.641Z,100517.00
2023-01-08T22:13:03.283Z,100511.59
2023-01-08T22:16:09.129Z,100517.19
2023-01-08T22:19:13.259Z,100503.16
2023-01-08T22:22:16.013Z,100508.44
2023-01-08T22:25:18.650Z,100496.78
2023-01-08T22:28:21.267Z,100500.50
2023-01-08T22:31:24.314Z,100498.56
2023-01-08T22:34:30.505Z,100492.06
2023-01-08T22:37:33.237Z,100491.25
2023-01-08T22:40:38.790Z,100484.38
2023-01-08T22:43:41.490Z,100489.16
2023-01-08T22:46:44.289Z,100477.22
2023-01-08T22:49:49.538Z,100463.97
2023-01-08T22:52:52.165Z,100464.03
2023-01-08T22:55:54.849Z,100470.41
2023-01-08T22:58:58.029Z,100463.38
2023-01-08T23:02:00.818Z,100454.22
2023-01-08T23:05:05.697Z,100454.72
2023-01-08T23:08:08.954Z,100455.44
2023-01-08T23:11:14.334Z,100450.13
2023-01-08T23:14:17.025Z,100443.16
2023-01-08T23:17:19.704Z,100440.31
2023-01-08T23:20:24.984Z,100429.44
2023-01-08T23:23:27.660Z,100427.84
2023-01-08T23:26:30.365Z,100414.31
2023-01-08T23:29:32.910Z,100413.16
2023-01-08T23:32:35.530Z,100404.16
2023-01-08T23:35:39.537Z,100402.97
2023-01-08T23:38:42.319Z,100394.59
2023-01-08T23:41:44.946Z,100400.97
2023-01-08T23:44:49.238Z,100391.19
2023-01-08T23:47:51.917Z,100391.53
2023-01-08T23:50:56.576Z,100397.31
2023-01-08T23:53:59.314Z,100390.25
2023-01-08T23:57:02.114Z,100392.31
